Time;durP1;ratioP1;P1;durP2;ratioP2;P2;SDS_P1;SDS_P2;PMS_P1;PMS_P2;Temp;Humidity;BMP_temperature;BMP_pressure;BME280_temperature;BME280_humidity;BME280_pressure;Samples;Min_cycle;Max_cycle;Signal;HPM_P1;HPM_P2
2023/03/10 07:17:25;;;;;;;;;0.00;0.00;;;;;9.28;78.31;98752.59;6243576;22;46835;-73
2023/03/10 07:19:50;;;;;;;;;0.00;0.00;;;;;9.55;78.18;98799.09;6275837;22;45227;-76
2023/03/10 07:22:15;;;;;;;;;0.00;0.00;;;;;9.58;77.09;98800.84;6275600;22;45133;-75
2023/03/10 07:24:41;;;;;;;;;0.00;0.00;;;;;9.44;77.88;98785.06;6276025;22;46204;-76
2023/03/10 07:27:07;;;;;;;;;0.25;0.00;;;;;9.55;77.64;98807.00;6275639;22;46541;-77
2023/03/10 07:29:32;;;;;;;;;1.00;0.00;;;;;9.63;78.60;98825.41;6275674;22;45212;-74
2023/03/10 07:31:57;;;;;;;;;0.00;0.00;;;;;9.46;77.66;98796.47;6277502;22;45230;-73
2023/03/10 07:34:23;;;;;;;;;0.00;0.00;;;;;9.58;77.34;98799.09;6277975;22;45398;-74
2023/03/10 07:36:48;;;;;;;;;0.00;0.00;;;;;9.52;77.49;98808.75;6277069;22;45485;-75
2023/03/10 07:39:14;;;;;;;;;1.00;0.00;;;;;9.57;77.36;98822.81;6300774;22;49811;-76
2023/03/10 07:41:39;;;;;;;;;0.00;0.00;;;;;9.51;76.36;98797.34;6278144;22;45302;-76
2023/03/10 07:44:04;;;;;;;;;0.00;0.00;;;;;9.62;75.49;98828.97;6278309;22;48376;-75
2023/03/10 07:46:30;;;;;;;;;0.50;0.00;;;;;9.68;75.88;98847.41;6277539;22;45724;-75
2023/03/10 07:48:58;;;;;;;;;0.75;0.00;;;;;9.75;75.63;98879.94;6277916;22;45283;-75
2023/03/10 07:51:24;;;;;;;;;0.00;0.00;;;;;9.83;75.40;98883.38;6301604;22;45330;-75
2023/03/10 07:53:49;;;;;;;;;0.25;0.25;;;;;9.52;74.82;98853.59;6302004;22;45735;-76
2023/03/10 07:56:14;;;;;;;;;0.00;0.00;;;;;9.74;74.03;98880.78;6276002;22;45751;-75
2023/03/10 07:58:41;;;;;;;;;0.00;0.00;;;;;9.60;73.13;98849.19;6278363;22;45240;-76
2023/03/10 08:01:07;;;;;;;;;1.00;0.00;;;;;9.93;73.66;98922.06;6277525;22;45117;-74
2023/03/10 08:03:33;;;;;;;;;1.00;0.00;;;;;9.94;72.95;98939.69;6275960;22;46150;-75
2023/03/10 08:06:00;;;;;;;;;0.00;0.00;;;;;9.92;72.41;98952.00;6275108;22;47676;-75
2023/03/10 08:08:26;;;;;;;;;0.00;0.00;;;;;9.85;73.00;98926.50;6278802;22;45247;-75
2023/03/10 08:11:05;;;;;;;;;0.00;0.00;;;;;9.94;72.94;98962.53;6278245;22;45242;-74
2023/03/10 08:13:31;;;;;;;;;0.00;0.00;;;;;9.75;72.61;98940.63;6277845;22;45105;-74
2023/03/10 08:16:00;;;;;;;;;0.00;0.00;;;;;9.49;72.62;98916.91;6277543;22;45266;-75
2023/03/10 08:18:28;;;;;;;;;0.00;0.00;;;;;9.85;72.59;98982.78;6275440;22;45323;-74
2023/03/10 08:20:54;;;;;;;;;0.00;0.00;;;;;9.53;72.64;98943.28;6278117;22;45240;-75
2023/03/10 08:23:20;;;;;;;;;1.00;0.00;;;;;9.84;72.94;99009.19;6278519;22;45247;-74
2023/03/10 08:25:45;;;;;;;;;0.25;0.00;;;;;9.69;73.07;98993.34;6275644;22;46968;-76
2023/03/10 08:28:11;;;;;;;;;0.00;0.00;;;;;9.61;72.35;98990.75;6275721;22;45463;-76
2023/03/10 08:30:40;;;;;;;;;0.00;0.00;;;;;9.71;72.01;99015.34;6278072;22;45205;-75
2023/03/10 08:33:09;;;;;;;;;0.00;0.00;;;;;9.74;71.67;99021.50;6273789;22;45293;-74
2023/03/10 08:35:35;;;;;;;;;1.50;0.00;;;;;9.63;71.01;99015.34;6277425;22;45552;-76
2023/03/10 08:38:00;;;;;;;;;0.50;0.00;;;;;9.59;71.48;99014.47;6275834;22;45264;-75
2023/03/10 08:40:26;;;;;;;;;2.00;0.00;;;;;9.85;71.52;99053.16;6275337;22;45161;-76
2023/03/10 08:42:52;;;;;;;;;0.00;0.00;;;;;9.82;71.85;99061.06;6275131;22;45368;-75
2023/03/10 08:45:17;;;;;;;;;0.00;0.00;;;;;9.79;71.80;99079.56;6277246;22;47695;-75
2023/03/10 08:47:43;;;;;;;;;1.00;0.00;;;;;9.77;71.94;99081.31;6277626;22;45298;-75
2023/03/10 08:50:10;;;;;;;;;0.75;0.25;;;;;9.76;71.50;99092.75;6276075;22;45249;-75
2023/03/10 08:52:36;;;;;;;;;1.50;0.00;;;;;9.71;72.10;99092.75;6275153;22;47245;-75
2023/03/10 08:55:03;;;;;;;;;0.00;0.00;;;;;9.65;71.56;99082.19;6278040;22;45114;-75
2023/03/10 08:57:29;;;;;;;;;0.00;0.00;;;;;9.72;71.49;99114.72;6275247;22;45285;-74
2023/03/10 08:59:54;;;;;;;;;0.00;0.00;;;;;9.49;71.37;99078.66;6277828;22;45188;-75
2023/03/10 09:02:20;;;;;;;;;0.00;0.00;;;;;9.39;71.16;99063.72;6276985;22;45238;-75
2023/03/10 09:04:46;;;;;;;;;3.00;0.00;;;;;9.51;70.58;99105.03;6277704;22;45400;-74
2023/03/10 09:07:11;;;;;;;;;0.00;0.00;;;;;9.49;71.06;99112.94;6274755;22;45216;-74
2023/03/10 09:09:36;;;;;;;;;0.25;0.00;;;;;9.36;71.05;99109.41;6277493;22;45204;-75
2023/03/10 09:12:02;;;;;;;;;0.00;0.00;;;;;9.49;70.32;99136.69;6277129;22;45406;-74
2023/03/10 09:14:28;;;;;;;;;0.00;0.00;;;;;9.13;71.50;99082.09;6277269;22;45147;-75
2023/03/10 09:16:53;;;;;;;;;2.75;1.00;;;;;9.39;71.25;99159.53;6276463;22;45195;-75
2023/03/10 09:19:19;;;;;;;;;2.00;0.00;;;;;9.39;71.37;99170.06;6300404;22;45922;-74
2023/03/10 09:21:44;;;;;;;;;0.25;0.25;;;;;9.29;71.22;99175.31;6277012;22;45413;-74
2023/03/10 09:24:09;;;;;;;;;1.00;1.00;;;;;9.13;71.72;99163.81;6274130;22;47553;-74
2023/03/10 09:26:34;;;;;;;;;3.00;0.25;;;;;9.28;71.36;99218.38;6276779;22;45263;-74
2023/03/10 09:29:00;;;;;;;;;0.50;0.50;;;;;9.16;71.84;99208.69;6275560;22;45420;-74
2023/03/10 09:31:34;;;;;;;;;1.00;1.00;;;;;8.84;71.75;99169.84;6275976;22;45365;-76
2023/03/10 09:34:01;;;;;;;;;2.75;0.00;;;;;9.14;71.38;99213.06;6275245;22;47464;-73
2023/03/10 09:36:26;;;;;;;;;0.00;0.00;;;;;8.95;70.97;99196.25;6276684;22;45361;-75
2023/03/10 09:38:51;;;;;;;;;2.00;0.25;;;;;9.12;71.25;99246.41;6277053;22;45281;-74
2023/03/10 09:41:38;;;;;;;;;2.75;1.00;;;;;9.15;71.48;99257.84;6274666;22;45497;-74
2023/03/10 09:44:21;;;;;;;;;0.00;0.00;;;;;9.10;71.86;99277.16;6277140;22;46758;-75
2023/03/10 09:47:17;;;;;;;;;1.00;0.50;;;;;9.02;71.30;99277.13;6275830;22;45302;-74
2023/03/10 09:49:57;;;;;;;;;0.00;0.00;;;;;8.92;70.81;99284.09;6276748;22;45378;-74
2023/03/10 09:52:27;;;;;;;;;1.00;0.25;;;;;8.86;70.25;99288.44;6274412;22;47055;-74
2023/03/10 09:55:18;;;;;;;;;1.00;1.00;;;;;8.92;69.69;99307.78;6274282;22;46930;-74
2023/03/10 09:57:46;;;;;;;;;2.00;0.00;;;;;8.75;68.67;99277.81;6274420;22;45191;-73
2023/03/10 10:00:21;;;;;;;;;1.00;1.00;;;;;8.82;69.15;99320.88;6277007;22;45306;-74
2023/03/10 10:02:50;;;;;;;;;0.50;0.50;;;;;8.83;69.40;99325.31;6276664;22;45219;-73
2023/03/10 10:05:36;;;;;;;;;0.00;0.00;;;;;8.74;69.57;99327.00;6278179;22;45254;-75
2023/03/10 10:08:13;;;;;;;;;0.75;0.00;;;;;8.83;69.13;99356.94;6275977;22;45287;-74
2023/03/10 10:10:42;;;;;;;;;0.00;0.00;;;;;8.58;67.66;99334.75;6277475;22;45395;-74
2023/03/10 10:13:13;;;;;;;;;0.50;0.00;;;;;8.75;66.24;99375.28;6275849;22;45348;-75
2023/03/10 10:15:44;;;;;;;;;2.50;0.00;;;;;8.74;66.96;99378.81;6275838;22;46470;-74
2023/03/10 10:18:34;;;;;;;;;0.50;0.50;;;;;8.78;66.40;99395.53;6274854;22;45331;-74
2023/03/10 10:21:08;;;;;;;;;1.50;1.25;;;;;8.57;66.30;99377.75;6278089;22;45200;-74
2023/03/10 10:23:47;;;;;;;;;5.00;3.75;;;;;8.72;64.86;99410.41;6278133;22;45231;-74
2023/03/10 10:26:28;;;;;;;;;2.25;1.75;;;;;8.63;65.13;99405.06;6277404;22;45337;-74
2023/03/10 10:28:57;;;;;;;;;3.75;1.00;;;;;8.74;65.59;99434.13;6278189;22;45285;-74
2023/03/10 10:31:27;;;;;;;;;1.75;1.00;;;;;8.61;65.70;99417.31;6277492;22;45301;-73
2023/03/10 10:33:54;;;;;;;;;2.00;0.75;;;;;8.77;64.86;99422.75;6278138;22;45267;-73
2023/03/10 10:36:22;;;;;;;;;1.50;1.25;;;;;8.77;64.42;99431.53;6275451;22;46899;-75
2023/03/10 10:38:49;;;;;;;;;1.00;1.00;;;;;8.66;63.72;99398.94;6278030;22;45336;-74
2023/03/10 10:41:22;;;;;;;;;0.00;0.00;;;;;8.84;63.93;99435.97;6277642;22;45270;-74
2023/03/10 10:43:49;;;;;;;;;1.00;1.00;;;;;8.74;62.96;99405.16;6278143;22;45351;-74
2023/03/10 10:46:24;;;;;;;;;4.00;1.50;;;;;8.89;63.49;99415.81;6274523;22;46158;-74
2023/03/10 10:49:00;;;;;;;;;1.00;1.00;;;;;9.04;63.22;99453.72;6277644;22;45378;-73
2023/03/10 10:51:29;;;;;;;;;4.00;0.75;;;;;9.23;62.31;99447.72;6275826;22;45209;-74
2023/03/10 10:53:56;;;;;;;;;0.50;0.50;;;;;9.09;62.19;99441.47;6278131;22;45203;-73
2023/03/10 10:56:23;;;;;;;;;0.75;0.75;;;;;9.18;60.80;99463.50;6277728;22;45266;-73
2023/03/10 10:59:06;;;;;;;;;3.50;0.00;;;;;9.25;60.87;99489.94;6278242;22;45460;-73
2023/03/10 11:02:02;;;;;;;;;3.00;1.00;;;;;9.20;59.42;99487.25;6275055;22;45308;-73
2023/03/10 11:04:41;;;;;;;;;2.00;1.25;;;;;9.02;60.09;99479.16;6250776;22;46045;-73
2023/03/10 11:07:18;;;;;;;;;0.75;0.00;;;;;9.05;59.70;99497.66;6277329;22;45535;-73
2023/03/10 11:09:43;;;;;;;;;3.00;1.75;;;;;9.13;60.01;99496.88;6277789;22;45212;-73
2023/03/10 11:12:24;;;;;;;;;2.00;2.00;;;;;9.25;59.40;99524.22;6275513;22;45253;-73
2023/03/10 11:15:11;;;;;;;;;0.50;0.50;;;;;9.07;59.07;99472.19;6277765;22;45198;-73
2023/03/10 11:17:45;;;;;;;;;4.50;2.00;;;;;9.42;58.66;99530.50;6274243;22;45578;-72
2023/03/10 11:20:23;;;;;;;;;1.00;1.00;;;;;9.44;56.91;99530.50;6277633;22;45230;-73
2023/03/10 11:22:51;;;;;;;;;3.00;1.75;;;;;9.52;56.43;99527.09;6277485;22;45276;-73
2023/03/10 11:25:35;;;;;;;;;1.25;1.00;;;;;9.50;57.33;99544.66;6277417;22;45352;-73
2023/03/10 11:28:20;;;;;;;;;2.00;2.00;;;;;9.69;55.90;99536.88;6277303;22;45839;-74
2023/03/10 11:30:57;;;;;;;;;2.25;1.00;;;;;9.55;55.34;99515.66;6274703;22;45268;-73
2023/03/10 11:33:38;;;;;;;;;6.00;2.00;;;;;9.79;54.76;99579.16;6277804;22;45326;-73
2023/03/10 11:36:16;;;;;;;;;2.00;0.00;;;;;9.70;54.81;99547.44;6277254;22;45455;-73
2023/03/10 11:38:47;;;;;;;;;1.00;1.00;;;;;9.90;55.49;99560.78;6277532;22;45481;-73
2023/03/10 11:41:13;;;;;;;;;1.00;1.00;;;;;9.57;55.41;99511.28;6277188;22;45473;-73
2023/03/10 11:43:39;;;;;;;;;4.25;1.00;;;;;10.02;55.66;99570.53;6277590;22;45214;-73
2023/03/10 11:46:16;;;;;;;;;2.00;1.00;;;;;9.97;55.76;99562.59;6276804;22;45250;-73
2023/03/10 11:49:09;;;;;;;;;2.25;1.00;;;;;10.12;55.67;99588.22;6275719;22;46501;-73
2023/03/10 11:51:40;;;;;;;;;2.25;2.00;;;;;9.92;54.96;99569.59;6274946;22;45272;-73
2023/03/10 11:54:21;;;;;;;;;4.75;1.00;;;;;9.98;54.73;99589.88;6275749;22;45349;-73
2023/03/10 11:56:50;;;;;;;;;3.50;1.00;;;;;9.95;54.48;99606.56;6277423;22;45450;-73
2023/03/10 11:59:25;;;;;;;;;1.00;0.00;;;;;9.87;54.69;99616.19;6301295;22;46920;-73
2023/03/10 12:02:12;;;;;;;;;2.75;1.00;;;;;9.92;54.78;99616.22;6276730;22;45207;-73
2023/03/10 12:05:17;;;;;;;;;1.50;1.00;;;;;9.87;55.16;99605.63;6277597;22;45331;-72
2023/03/10 12:07:45;;;;;;;;;2.25;0.75;;;;;9.81;54.72;99597.66;6228937;22;45323;-72
2023/03/10 12:10:11;;;;;;;;;0.00;0.00;;;;;9.88;54.64;99619.72;6274719;22;45326;-73
2023/03/10 12:12:39;;;;;;;;;2.00;1.00;;;;;9.84;55.12;99634.63;6276778;22;45350;-73
2023/03/10 12:15:23;;;;;;;;;1.25;1.00;;;;;9.76;55.36;99618.72;6277501;22;45294;-72
2023/03/10 12:17:50;;;;;;;;;2.00;2.00;;;;;9.73;55.06;99626.63;6274264;22;46134;-73
2023/03/10 12:20:16;;;;;;;;;5.00;1.50;;;;;9.88;54.63;99661.94;6277335;22;45329;-73
2023/03/10 12:22:50;;;;;;;;;4.50;0.75;;;;;9.80;54.33;99678.59;6275021;22;45334;-73
2023/03/10 12:25:45;;;;;;;;;7.75;1.50;;;;;9.75;54.28;99682.06;6277331;22;45318;-73
2023/03/10 12:28:16;;;;;;;;;1.75;0.75;;;;;9.70;55.57;99695.22;6256635;22;45209;-73
2023/03/10 12:30:49;;;;;;;;;1.75;1.00;;;;;9.59;55.45;99696.84;6276374;22;45430;-72
2023/03/10 12:33:30;;;;;;;;;1.75;1.75;;;;;9.63;55.56;99727.66;6276933;22;45159;-73
2023/03/10 12:36:04;;;;;;;;;1.75;0.75;;;;;9.58;56.11;99735.53;6274821;22;45336;-72
2023/03/10 12:38:35;;;;;;;;;1.75;1.75;;;;;9.52;56.19;99740.75;6275071;22;45281;-73
2023/03/10 12:41:01;;;;;;;;;0.25;0.25;;;;;9.25;55.70;99679.78;6275053;22;45319;-73
2023/03/10 12:43:43;;;;;;;;;1.00;1.00;;;;;9.49;56.28;99738.06;6277346;22;45694;-73
2023/03/10 12:46:14;;;;;;;;;0.50;0.00;;;;;9.47;56.46;99728.38;6276986;22;45264;-73
2023/03/10 12:48:54;;;;;;;;;1.25;1.00;;;;;9.47;55.57;99699.38;6276498;22;45429;-72
2023/03/10 12:51:24;;;;;;;;;0.00;0.00;;;;;9.46;55.95;99721.31;6274015;22;47190;-72
2023/03/10 12:54:05;;;;;;;;;0.00;0.00;;;;;9.46;55.53;99732.75;6275252;22;45335;-72
2023/03/10 12:57:09;;;;;;;;;1.75;1.00;;;;;9.43;56.31;99742.38;6274741;22;45266;-73
2023/03/10 12:59:43;;;;;;;;;0.00;0.00;;;;;9.43;55.76;99768.75;6275717;22;45588;-72
2023/03/10 13:02:30;;;;;;;;;1.00;0.25;;;;;9.34;56.21;99796.78;6276095;22;45355;-73
2023/03/10 13:05:01;;;;;;;;;0.00;0.00;;;;;9.21;56.19;99781.66;6277112;22;45177;-73
2023/03/10 13:07:28;;;;;;;;;0.00;0.00;;;;;9.22;56.35;99817.72;6274797;22;45386;-73
2023/03/10 13:09:55;;;;;;;;;1.00;0.50;;;;;9.00;56.55;99821.81;6274812;22;45210;-73
2023/03/10 13:12:29;;;;;;;;;0.00;0.00;;;;;9.05;56.65;99833.31;6274497;22;46477;-73
2023/03/10 13:14:57;;;;;;;;;1.00;1.00;;;;;9.10;56.33;99863.28;6276396;22;45295;-73
2023/03/10 13:17:28;;;;;;;;;2.00;0.00;;;;;8.92;56.18;99834.88;6275205;22;45319;-72
2023/03/10 13:20:24;;;;;;;;;1.50;0.25;;;;;8.90;55.41;99857.66;6274679;22;47237;-72
2023/03/10 13:22:55;;;;;;;;;1.50;1.50;;;;;8.89;54.78;99842.72;6273848;22;45221;-73
2023/03/10 13:25:21;;;;;;;;;3.50;1.00;;;;;8.83;54.98;99891.81;6276391;22;45314;-73
2023/03/10 13:27:46;;;;;;;;;0.50;0.50;;;;;8.79;54.45;99901.41;6276460;22;45232;-73
2023/03/10 13:30:14;;;;;;;;;1.00;1.00;;;;;8.76;55.71;99911.88;6274405;22;46368;-73
2023/03/10 13:32:40;;;;;;;;;2.50;0.75;;;;;8.59;55.96;99903.69;6276104;22;45357;-73
2023/03/10 13:35:35;;;;;;;;;1.00;1.00;;;;;8.70;55.95;99946.91;6276478;22;45277;-72
2023/03/10 13:38:14;;;;;;;;;1.00;1.00;;;;;8.52;56.81;99925.53;6266180;22;45231;-72
2023/03/10 13:40:46;;;;;;;;;0.00;0.00;;;;;8.56;57.27;99942.28;6277664;22;45319;-72
2023/03/10 13:43:33;;;;;;;;;1.00;1.00;;;;;8.51;56.33;99995.75;6277378;22;45464;-72
2023/03/10 13:46:00;;;;;;;;;0.00;0.00;;;;;8.40;56.81;99983.22;6274744;22;45230;-71
2023/03/10 13:48:29;;;;;;;;;1.00;1.00;;;;;8.35;56.87;99985.75;6277829;22;45258;-72
2023/03/10 13:51:21;;;;;;;;;1.75;0.00;;;;;8.36;56.76;100020.84;6277092;22;45483;-71
2023/03/10 13:53:51;;;;;;;;;1.00;1.00;;;;;8.33;56.87;100028.69;6277558;22;45243;-70
2023/03/10 13:56:24;;;;;;;;;1.00;1.00;;;;;8.33;56.84;100029.56;6276918;22;45275;-71
2023/03/10 13:58:53;;;;;;;;;0.00;0.00;;;;;8.35;56.99;100027.00;6278073;22;45335;-73
2023/03/10 14:01:45;;;;;;;;;1.50;1.00;;;;;8.34;56.48;100039.25;6276830;22;45315;-73
2023/03/10 14:04:16;;;;;;;;;1.25;1.00;;;;;7.85;57.35;99985.56;6277676;22;46474;-73
2023/03/10 14:06:41;;;;;;;;;1.50;1.00;;;;;8.14;57.28;100053.72;6277416;22;45329;-73
2023/03/10 14:09:21;;;;;;;;;1.00;1.00;;;;;8.24;57.44;100082.94;6278213;22;45232;-72
2023/03/10 14:11:49;;;;;;;;;1.00;1.00;;;;;8.21;57.64;100079.34;6277395;22;45483;-73
2023/03/10 14:14:32;;;;;;;;;2.00;2.00;;;;;8.28;58.50;100087.41;6276438;22;46508;-72
2023/03/10 14:16:59;;;;;;;;;1.00;1.00;;;;;8.25;58.43;100089.97;6276139;22;45335;-72
2023/03/10 14:19:42;;;;;;;;;2.25;1.00;;;;;8.24;58.82;100092.56;6275972;22;46138;-73
2023/03/10 14:22:28;;;;;;;;;1.00;1.00;;;;;8.23;58.88;100101.31;6276559;22;45302;-73
2023/03/10 14:24:54;;;;;;;;;1.00;1.00;;;;;7.98;59.63;100086.69;6276824;22;45283;-73
2023/03/10 14:27:20;;;;;;;;;2.00;2.00;;;;;8.12;59.62;100097.53;6276929;22;45278;-73
2023/03/10 14:29:50;;;;;;;;;3.25;2.50;;;;;8.03;59.29;100093.84;6301791;22;45219;-72
2023/03/10 14:32:16;;;;;;;;;1.50;1.50;;;;;8.03;59.49;100138.59;6276369;22;45479;-73
2023/03/10 14:34:42;;;;;;;;;1.00;1.00;;;;;7.87;59.23;100122.41;6275415;22;45829;-72
2023/03/10 14:37:07;;;;;;;;;2.50;2.50;;;;;7.90;60.24;100146.16;6277114;22;46630;-73
2023/03/10 14:39:35;;;;;;;;;4.50;2.75;;;;;7.86;59.23;100139.94;6277209;22;45480;-73
2023/03/10 14:42:01;;;;;;;;;1.00;1.00;;;;;7.74;59.15;100151.06;6274889;22;46201;-73
2023/03/10 14:44:27;;;;;;;;;3.75;3.75;;;;;7.76;59.83;100164.25;6277173;22;45172;-72
2023/03/10 14:46:54;;;;;;;;;1.00;1.00;;;;;7.59;59.78;100150.69;6276779;22;45234;-73
2023/03/10 14:49:23;;;;;;;;;0.00;0.00;;;;;7.64;59.97;100201.63;6276735;22;45216;-72
2023/03/10 14:51:49;;;;;;;;;3.00;2.00;;;;;7.48;60.32;100188.91;6275083;22;45339;-73
2023/03/10 14:54:17;;;;;;;;;4.75;3.25;;;;;7.66;60.70;100230.63;6275288;22;47742;-73
2023/03/10 14:56:43;;;;;;;;;1.75;1.75;;;;;7.51;60.63;100207.44;6275159;22;45651;-73
2023/03/10 14:59:13;;;;;;;;;3.25;2.50;;;;;7.48;60.54;100237.16;6277434;22;45512;-73
2023/03/10 15:01:38;;;;;;;;;2.00;2.00;;;;;7.43;60.72;100265.06;6276534;22;45417;-73
2023/03/10 15:04:04;;;;;;;;;1.00;1.00;;;;;7.40;60.40;100251.84;6277236;22;46172;-72
2023/03/10 15:06:29;;;;;;;;;1.00;1.00;;;;;7.30;60.49;100250.66;6277260;22;45499;-72
2023/03/10 15:08:55;;;;;;;;;1.00;1.00;;;;;7.27;60.52;100247.06;6277423;22;45853;-73
2023/03/10 15:11:20;;;;;;;;;3.25;1.75;;;;;7.34;61.10;100268.31;6276932;22;45450;-73
2023/03/10 15:13:45;;;;;;;;;2.00;2.00;;;;;7.25;60.93;100265.41;6274832;22;47200;-71
2023/03/10 15:16:13;;;;;;;;;2.00;2.00;;;;;7.29;61.57;100277.81;6276775;22;45264;-71
2023/03/10 15:18:38;;;;;;;;;3.00;3.00;;;;;7.26;61.43;100271.59;6277022;22;45533;-71
2023/03/10 15:21:04;;;;;;;;;1.00;1.00;;;;;7.40;61.74;100299.16;6274222;22;45503;-70
2023/03/10 15:23:29;;;;;;;;;1.75;1.75;;;;;7.15;61.41;100258.13;6275218;22;47138;-71
2023/03/10 15:25:55;;;;;;;;;2.75;2.75;;;;;7.29;61.78;100300.59;6274907;22;45280;-71
2023/03/10 15:28:21;;;;;;;;;2.00;2.00;;;;;7.25;61.83;100320.63;6277260;22;45211;-71
2023/03/10 15:30:47;;;;;;;;;2.00;2.00;;;;;7.17;60.98;100312.53;6276940;22;45476;-71
2023/03/10 15:33:12;;;;;;;;;2.75;2.75;;;;;7.15;62.15;100337.84;6277010;22;45453;-71
2023/03/10 15:35:38;;;;;;;;;3.00;2.00;;;;;6.98;62.78;100333.81;6277164;22;45244;-71
2023/03/10 15:38:04;;;;;;;;;1.00;1.00;;;;;7.07;62.43;100344.63;6277212;22;45299;-70
2023/03/10 15:40:34;;;;;;;;;1.75;1.75;;;;;7.06;62.89;100352.47;6276919;22;45267;-71
2023/03/10 15:42:59;;;;;;;;;4.25;2.25;;;;;6.99;62.87;100371.50;6275591;22;46765;-71
2023/03/10 15:45:28;;;;;;;;;1.75;1.75;;;;;6.83;62.31;100344.72;6302527;22;45263;-68
2023/03/10 15:47:53;;;;;;;;;2.00;2.00;;;;;6.98;62.87;100385.50;6277045;22;45244;-69
2023/03/10 15:50:20;;;;;;;;;4.00;2.75;;;;;6.93;62.84;100383.59;6275042;22;46513;-70
2023/03/10 15:52:51;;;;;;;;;5.00;3.00;;;;;6.86;63.52;100381.63;6277331;22;45309;-71
2023/03/10 15:55:16;;;;;;;;;6.50;4.00;;;;;6.61;62.95;100358.00;6275834;22;45279;-72
2023/03/10 15:57:43;;;;;;;;;3.00;3.00;;;;;6.52;63.62;100347.19;6277412;22;45282;-70
2023/03/10 16:00:11;;;;;;;;;4.00;4.00;;;;;6.60;63.03;100386.00;6277804;22;45602;-74
2023/03/10 16:02:36;;;;;;;;;6.25;4.00;;;;;6.70;63.88;100389.84;6274570;22;45684;-72
2023/03/10 16:05:03;;;;;;;;;6.00;6.00;;;;;6.52;63.71;100360.34;6277760;22;45220;-74
2023/03/10 16:07:29;;;;;;;;;3.00;3.00;;;;;6.50;64.21;100366.44;6277652;22;45325;-73
2023/03/10 16:09:55;;;;;;;;;7.00;6.00;;;;;6.60;63.94;100385.13;6277536;22;45260;-72
2023/03/10 16:12:22;;;;;;;;;9.50;8.00;;;;;6.62;63.59;100380.81;6276934;22;45281;-72
2023/03/10 16:14:47;;;;;;;;;17.50;15.00;;;;;6.61;63.99;100385.19;6274836;22;45232;-69
2023/03/10 16:17:12;;;;;;;;;4.00;4.00;;;;;6.61;64.19;100374.69;6275930;22;45309;-69
2023/03/10 16:19:38;;;;;;;;;9.00;8.50;;;;;6.58;64.72;100392.97;6277741;22;45313;-69
2023/03/10 16:22:03;;;;;;;;;23.75;19.75;;;;;6.68;64.53;100418.66;6277331;22;45450;-69
2023/03/10 16:24:29;;;;;;;;;6.75;6.75;;;;;6.64;64.20;100401.03;6277924;22;45246;-71
2023/03/10 16:26:54;;;;;;;;;3.00;3.00;;;;;6.58;63.68;100399.91;6277744;22;45193;-71
2023/03/10 16:29:19;;;;;;;;;2.50;2.50;;;;;6.66;63.69;100422.97;6277390;22;45538;-71
2023/03/10 16:31:44;;;;;;;;;9.25;9.00;;;;;6.79;64.22;100441.78;6277039;22;45359;-71
2023/03/10 16:34:10;;;;;;;;;8.50;6.00;;;;;6.66;63.91;100430.84;6277284;22;49128;-71
2023/03/10 16:36:35;;;;;;;;;2.75;1.25;;;;;6.76;63.65;100446.94;6275118;22;45229;-70
2023/03/10 16:39:02;;;;;;;;;6.00;6.00;;;;;6.81;63.13;100467.28;6278001;22;45290;-70
2023/03/10 16:41:28;;;;;;;;;5.50;4.00;;;;;6.72;63.30;100454.72;6277363;22;45456;-69
2023/03/10 16:43:53;;;;;;;;;3.00;3.00;;;;;6.76;63.57;100467.94;6277978;22;45167;-69
2023/03/10 16:46:28;;;;;;;;;7.75;7.75;;;;;6.74;63.16;100465.25;6276958;22;45163;-70
2023/03/10 16:48:55;;;;;;;;;14.00;10.00;;;;;6.72;63.75;100449.47;6274748;22;45579;-70
2023/03/10 16:51:25;;;;;;;;;8.25;8.25;;;;;6.78;63.74;100474.13;6277122;22;45201;-70
2023/03/10 16:53:53;;;;;;;;;7.50;7.50;;;;;6.56;63.30;100444.53;6277344;22;45330;-70
2023/03/10 16:56:19;;;;;;;;;6.00;6.00;;;;;6.81;63.41;100485.66;6277354;22;45168;-70
2023/03/10 16:58:44;;;;;;;;;3.00;3.00;;;;;6.80;63.02;100491.72;6277555;22;45427;-69
2023/03/10 17:01:10;;;;;;;;;9.25;7.25;;;;;6.70;63.53;100476.50;6276782;22;45197;-70
2023/03/10 17:03:38;;;;;;;;;7.00;7.00;;;;;6.69;63.19;100466.81;6277502;22;45259;-70
2023/03/10 17:06:09;;;;;;;;;4.00;4.00;;;;;6.71;63.43;100471.31;6277237;22;45298;-70
2023/03/10 17:08:36;;;;;;;;;5.00;3.00;;;;;6.70;63.27;100469.53;6274561;22;46042;-70
2023/03/10 17:11:02;;;;;;;;;5.50;4.50;;;;;6.56;63.13;100446.25;6277012;22;45322;-71
2023/03/10 17:13:27;;;;;;;;;5.75;5.75;;;;;6.63;62.72;100458.75;6276948;22;45250;-69
2023/03/10 17:15:53;;;;;;;;;11.00;9.00;;;;;6.63;62.41;100479.75;6274452;22;45294;-70
2023/03/10 17:18:18;;;;;;;;;10.25;8.00;;;;;6.58;62.94;100470.81;6276610;22;45332;-69
2023/03/10 17:20:44;;;;;;;;;9.50;7.50;;;;;6.54;61.97;100482.06;6277199;22;45316;-69
2023/03/10 17:23:10;;;;;;;;;4.75;2.75;;;;;6.60;62.65;100495.41;6277334;22;45264;-70
2023/03/10 17:25:36;;;;;;;;;4.00;4.00;;;;;6.59;62.75;100494.53;6277048;22;45289;-71
2023/03/10 17:28:02;;;;;;;;;6.00;3.00;;;;;6.38;63.21;100462.25;6276971;22;45203;-71
2023/03/10 17:30:27;;;;;;;;;4.50;4.50;;;;;6.54;63.24;100480.31;6274320;22;46628;-71
2023/03/10 17:32:52;;;;;;;;;4.00;3.75;;;;;6.46;62.53;100471.28;6276020;22;45407;-71
2023/03/10 17:35:18;;;;;;;;;4.00;4.00;;;;;6.56;62.60;100470.78;6273030;22;45285;-74
2023/03/10 17:37:45;;;;;;;;;5.50;4.50;;;;;6.57;62.69;100479.53;6275911;22;53448;-71
2023/03/10 17:40:14;;;;;;;;;4.00;4.00;;;;;6.36;63.04;100446.44;6271315;22;46774;-71
2023/03/10 17:42:41;;;;;;;;;9.50;8.25;;;;;6.51;63.42;100477.59;6275233;22;45248;-72
2023/03/10 17:45:07;;;;;;;;;6.00;3.50;;;;;6.54;63.72;100482.06;6275949;22;45243;-71
2023/03/10 17:47:32;;;;;;;;;6.25;6.25;;;;;6.53;63.97;100482.91;6275451;22;45291;-69
2023/03/10 17:50:00;;;;;;;;;7.75;6.00;;;;;6.35;63.82;100455.16;6275447;22;45503;-72
2023/03/10 17:52:26;;;;;;;;;7.00;7.00;;;;;6.48;63.56;100478.38;6276304;22;45163;-72
2023/03/10 17:54:51;;;;;;;;;11.25;8.25;;;;;6.55;64.11;100508.34;6276392;22;45236;-70
2023/03/10 17:57:17;;;;;;;;;22.50;16.25;;;;;6.44;64.01;100491.34;6276203;22;45220;-70
2023/03/10 17:59:42;;;;;;;;;13.00;13.00;;;;;6.47;63.83;100494.09;6274500;22;47935;-70
2023/03/10 18:02:10;;;;;;;;;8.00;8.00;;;;;6.43;64.08;100510.56;6273598;22;45287;-70
2023/03/10 18:04:35;;;;;;;;;8.50;8.50;;;;;6.49;63.79;100511.66;6274586;22;45362;-71
2023/03/10 18:07:01;;;;;;;;;12.00;11.00;;;;;6.43;63.39;100506.19;6274091;22;45853;-70
2023/03/10 18:09:26;;;;;;;;;18.25;17.25;;;;;6.30;63.79;100489.94;6274027;22;45672;-72
2023/03/10 18:11:55;;;;;;;;;28.00;22.00;;;;;6.48;63.97;100530.88;6275671;22;45215;-71
2023/03/10 18:14:20;;;;;;;;;26.50;24.25;;;;;6.44;64.00;100526.38;6274276;22;45271;-71
2023/03/10 18:16:45;;;;;;;;;14.25;14.00;;;;;6.40;63.23;100526.19;6275286;22;45534;-70
2023/03/10 18:19:12;;;;;;;;;42.50;32.25;;;;;6.34;64.30;100525.97;6276323;22;45164;-70
2023/03/10 18:21:38;;;;;;;;;18.00;18.00;;;;;6.47;64.22;100554.47;6275872;22;45260;-72
2023/03/10 18:24:03;;;;;;;;;18.50;14.50;;;;;6.41;63.69;100541.09;6276691;22;45253;-70
2023/03/10 18:26:32;;;;;;;;;18.25;16.25;;;;;6.39;63.84;100534.94;6275477;22;45965;-71
2023/03/10 18:28:58;;;;;;;;;25.50;24.25;;;;;6.36;63.76;100529.53;6275131;22;47184;-72
2023/03/10 18:31:30;;;;;;;;;18.25;16.00;;;;;6.35;63.86;100533.00;6275148;22;45760;-72
2023/03/10 18:33:57;;;;;;;;;7.00;7.00;;;;;6.37;63.30;100536.59;6278381;22;45323;-71
2023/03/10 18:36:23;;;;;;;;;11.50;10.25;;;;;6.38;63.09;100541.88;6277741;22;45356;-72
2023/03/10 18:38:49;;;;;;;;;12.75;12.75;;;;;6.29;63.72;100544.19;6277683;22;46489;-72
2023/03/10 18:41:18;;;;;;;;;11.75;11.50;;;;;6.41;63.96;100583.09;6277551;22;45144;-72
2023/03/10 18:43:44;;;;;;;;;7.50;6.75;;;;;6.38;63.33;100570.75;6277612;22;45258;-72
2023/03/10 18:46:09;;;;;;;;;7.50;7.00;;;;;6.42;64.22;100591.06;6276645;22;45255;-72
2023/03/10 18:48:34;;;;;;;;;7.25;7.25;;;;;6.25;63.69;100566.78;6277982;22;45430;-71
2023/03/10 18:51:00;;;;;;;;;9.75;8.25;;;;;6.30;63.95;100582.69;6277317;22;45334;-71
2023/03/10 18:53:26;;;;;;;;;10.75;9.25;;;;;6.33;63.57;100576.69;6275591;22;45270;-70
2023/03/10 18:55:52;;;;;;;;;9.25;9.25;;;;;6.37;63.42;100583.84;6277201;22;45366;-72
2023/03/10 18:58:18;;;;;;;;;11.50;11.50;;;;;6.34;63.58;100583.72;6277787;22;45580;-71
2023/03/10 19:00:44;;;;;;;;;19.50;19.25;;;;;6.35;63.95;100583.78;6276926;22;45172;-71
2023/03/10 19:03:11;;;;;;;;;12.00;8.50;;;;;6.31;63.95;100581.00;6277981;22;45219;-72
2023/03/10 19:05:37;;;;;;;;;13.00;12.00;;;;;6.44;63.84;100596.34;6277295;22;45859;-73